createdAt,value
2019-05-20T00:02:51.483Z,9.13
2019-05-20T00:06:54.631Z,8.63
2019-05-20T00:10:57.619Z,9.17
2019-05-20T00:15:00.614Z,9.43
2019-05-20T00:19:03.638Z,9.70
2019-05-20T00:23:06.639Z,9.23
2019-05-20T00:27:09.636Z,9.37
2019-05-20T00:31:12.623Z,9.13
2019-05-20T00:35:15.620Z,8.27
2019-05-20T00:39:19.451Z,8.50
2019-05-20T00:43:22.450Z,9.17
2019-05-20T00:47:26.579Z,9.43
2019-05-20T00:51:29.648Z,11.07
2019-05-20T00:55:32.689Z,11.80
2019-05-20T00:59:35.697Z,10.63
2019-05-20T01:03:38.698Z,11.50
2019-05-20T01:07:41.692Z,10.80
2019-05-20T01:11:44.694Z,11.37
2019-05-20T01:15:47.679Z,12.43
2019-05-20T01:19:50.678Z,13.77
2019-05-20T01:23:53.679Z,12.13
2019-05-20T01:27:56.672Z,12.10
2019-05-20T01:31:59.683Z,10.73
2019-05-20T01:36:02.811Z,10.10
2019-05-20T01:40:06.419Z,11.50
2019-05-20T01:44:09.538Z,10.50
2019-05-20T01:48:13.724Z,11.40
2019-05-20T01:52:16.695Z,11.23
2019-05-20T01:56:19.711Z,11.17
2019-05-20T02:00:23.114Z,11.13
2019-05-20T02:04:26.152Z,11.07
2019-05-20T02:08:29.168Z,11.17
2019-05-20T02:12:32.246Z,12.47
2019-05-20T02:16:35.255Z,11.27
2019-05-20T02:20:38.269Z,11.37
2019-05-20T02:24:41.256Z,10.80
2019-05-20T02:28:44.391Z,10.93
2019-05-20T02:32:47.363Z,12.80
2019-05-20T02:36:50.357Z,11.33
2019-05-20T02:40:53.367Z,12.23
2019-05-20T02:44:56.367Z,11.73
2019-05-20T02:49:00.626Z,12.13
2019-05-20T02:53:03.643Z,11.50
2019-05-20T02:57:06.638Z,10.73
2019-05-20T03:01:09.866Z,10.70
2019-05-20T03:05:12.980Z,10.67
2019-05-20T03:09:15.984Z,10.40
2019-05-20T03:13:19.039Z,9.53
2019-05-20T03:17:22.450Z,10.03
2019-05-20T03:21:25.436Z,9.07
2019-05-20T03:25:28.444Z,9.20
2019-05-20T03:29:31.439Z,10.43
2019-05-20T03:33:34.436Z,10.53
2019-05-20T03:37:37.428Z,10.60
2019-05-20T03:41:40.454Z,9.70
2019-05-20T03:45:43.509Z,12.03
2019-05-20T03:49:46.609Z,12.40
2019-05-20T03:53:49.611Z,12.47
2019-05-20T03:57:52.610Z,13.10
2019-05-20T04:01:55.707Z,13.40
2019-05-20T04:05:58.682Z,10.70
2019-05-20T04:10:03.456Z,10.33
2019-05-20T04:14:06.454Z,10.60
2019-05-20T04:18:09.797Z,10.53
2019-05-20T04:22:12.918Z,11.27
2019-05-20T04:26:16.413Z,10.73
2019-05-20T04:30:19.617Z,12.53
2019-05-20T04:34:22.916Z,10.63
2019-05-20T04:38:25.929Z,10.93
2019-05-20T04:42:29.010Z,10.77
2019-05-20T04:46:32.235Z,11.40
2019-05-20T04:50:35.738Z,12.97
2019-05-20T04:54:38.732Z,13.93
2019-05-20T04:58:41.732Z,13.63
2019-05-20T05:02:44.764Z,15.27
2019-05-20T05:06:47.771Z,15.17
2019-05-20T05:10:51.176Z,15.10
2019-05-20T05:14:54.227Z,12.93
2019-05-20T05:18:57.198Z,12.33
2019-05-20T05:23:00.182Z,12.07
2019-05-20T05:27:03.195Z,11.20
2019-05-20T05:31:06.182Z,11.27
2019-05-20T05:35:11.382Z,11.47
2019-05-20T05:39:14.389Z,12.37
2019-05-20T05:43:17.416Z,13.43
2019-05-20T05:47:21.448Z,12.73
2019-05-20T05:51:26.317Z,14.60
2019-05-20T05:55:29.348Z,13.63
2019-05-20T05:59:32.350Z,12.50
2019-05-20T06:03:35.377Z,14.40
2019-05-20T06:07:38.415Z,13.40
2019-05-20T06:11:41.465Z,13.73
2019-05-20T06:15:44.577Z,16.97
2019-05-20T06:19:47.570Z,15.83
2019-05-20T06:23:50.583Z,18.07
2019-05-20T06:27:53.592Z,18.20
2019-05-20T06:31:56.560Z,16.70
2019-05-20T06:35:59.660Z,18.87
2019-05-20T06:40:03.557Z,19.97
2019-05-20T06:44:06.687Z,22.63
2019-05-20T06:48:09.788Z,21.97
2019-05-20T06:52:13.967Z,21.37
2019-05-20T06:56:17.007Z,23.70
2019-05-20T07:00:32.092Z,23.43
2019-05-20T07:04:35.101Z,25.47
2019-05-20T07:08:38.070Z,24.03
2019-05-20T07:12:41.956Z,23.53
2019-05-20T07:16:45.270Z,23.47
2019-05-20T07:20:48.270Z,24.63
2019-05-20T07:24:51.275Z,25.30
2019-05-20T07:28:54.300Z,25.67
2019-05-20T07:32:57.385Z,25.53
2019-05-20T07:37:03.712Z,27.93
2019-05-20T07:41:05.288Z,24.30
2019-05-20T07:45:08.790Z,28.97
2019-05-20T07:49:12.255Z,26.00
2019-05-20T07:53:18.018Z,31.20
2019-05-20T07:57:24.025Z,26.73
2019-05-20T08:01:27.018Z,38.33
2019-05-20T08:05:30.024Z,28.37
2019-05-20T08:09:33.007Z,28.43
2019-05-20T08:13:35.986Z,27.50
2019-05-20T08:17:39.015Z,25.37
2019-05-20T08:21:42.020Z,25.37
2019-05-20T08:25:45.019Z,26.47
2019-05-20T08:29:48.027Z,23.17
2019-05-20T08:33:51.042Z,23.23
2019-05-20T08:37:54.042Z,26.67
2019-05-20T08:41:57.058Z,21.97
2019-05-20T08:46:00.095Z,20.60
2019-05-20T08:50:11.259Z,18.60
2019-05-20T08:54:13.426Z,21.60
2019-05-20T08:58:16.437Z,21.60
2019-05-20T09:02:19.543Z,22.80
2019-05-20T09:06:22.888Z,21.83
2019-05-20T09:10:25.880Z,22.97
2019-05-20T09:14:28.873Z,21.30
2019-05-20T09:18:31.922Z,22.47
2019-05-20T09:22:35.034Z,24.10
2019-05-20T09:26:38.054Z,22.20
2019-05-20T09:30:41.167Z,22.00
2019-05-20T09:34:44.214Z,19.67
2019-05-20T09:38:47.231Z,20.90
2019-05-20T09:42:50.226Z,20.27
2019-05-20T09:46:53.276Z,18.30
2019-05-20T09:50:56.252Z,19.00
2019-05-20T09:55:00.622Z,19.60
2019-05-20T09:59:03.631Z,17.33
2019-05-20T10:03:07.660Z,16.30
2019-05-20T10:07:10.859Z,17.20
2019-05-20T10:11:13.970Z,15.93
2019-05-20T10:15:18.699Z,16.07
2019-05-20T10:19:21.692Z,15.57
2019-05-20T10:23:24.848Z,15.97
2019-05-20T10:27:27.929Z,15.77
2019-05-20T10:31:30.946Z,16.60
2019-05-20T10:35:34.016Z,16.60
2019-05-20T10:39:37.023Z,15.30
2019-05-20T10:43:40.021Z,14.70
2019-05-20T10:47:43.162Z,15.20
2019-05-20T10:51:46.272Z,16.33
2019-05-20T10:55:49.933Z,16.33
2019-05-20T10:59:53.004Z,14.87
2019-05-20T11:03:56.009Z,14.50
2019-05-20T11:07:59.101Z,15.37
2019-05-20T11:12:02.202Z,15.27
2019-05-20T11:16:05.218Z,15.73
2019-05-20T11:20:09.002Z,13.33
2019-05-20T11:24:12.020Z,14.43
2019-05-20T11:28:15.018Z,13.83
2019-05-20T11:32:18.028Z,14.80
2019-05-20T11:36:21.040Z,15.23
2019-05-20T11:40:24.042Z,15.40
2019-05-20T11:44:27.055Z,16.17
2019-05-20T11:48:30.039Z,14.10
2019-05-20T11:52:33.071Z,14.57
2019-05-20T11:56:37.909Z,15.80
2019-05-20T12:00:41.076Z,15.33
2019-05-20T12:04:44.076Z,17.67
2019-05-20T12:08:47.246Z,16.93
2019-05-20T12:12:50.367Z,19.40
2019-05-20T12:16:53.367Z,20.93
2019-05-20T12:20:56.608Z,20.47
2019-05-20T12:25:00.050Z,19.63
2019-05-20T12:29:03.148Z,22.43
2019-05-20T12:33:18.655Z,23.33
2019-05-20T12:37:11.212Z,23.67
2019-05-20T12:41:14.230Z,29.13
2019-05-20T12:45:17.633Z,27.63
2019-05-20T12:49:20.739Z,28.17
2019-05-20T12:53:23.775Z,31.63
2019-05-20T12:57:27.626Z,32.13
2019-05-20T13:01:30.844Z,32.73
2019-05-20T13:05:33.846Z,28.80
2019-05-20T13:09:36.915Z,33.23
2019-05-20T13:13:39.899Z,33.33
2019-05-20T13:17:45.084Z,33.40
2019-05-20T13:21:47.957Z,34.70
2019-05-20T13:25:50.960Z,32.10
2019-05-20T13:29:54.026Z,33.90
2019-05-20T13:33:57.035Z,32.23
2019-05-20T13:38:00.063Z,35.67
2019-05-20T13:42:03.166Z,34.83
2019-05-20T13:46:06.160Z,38.87
2019-05-20T13:50:09.674Z,37.13
2019-05-20T13:54:12.715Z,34.33
2019-05-20T13:58:17.240Z,33.43
2019-05-20T14:02:20.310Z,40.17
2019-05-20T14:06:23.345Z,42.93
2019-05-20T14:10:26.347Z,41.40
2019-05-20T14:14:29.352Z,41.77
2019-05-20T14:18:32.404Z,45.50
2019-05-20T14:22:35.499Z,40.97
2019-05-20T14:26:38.561Z,39.77
2019-05-20T14:30:41.658Z,31.57
2019-05-20T14:34:44.729Z,35.10
2019-05-20T14:38:47.978Z,40.70
2019-05-20T14:42:51.071Z,38.60
2019-05-20T14:46:54.072Z,49.17
2019-05-20T14:50:57.095Z,38.27
2019-05-20T14:55:00.118Z,49.50
2019-05-20T14:59:03.344Z,50.83
2019-05-20T15:03:06.430Z,51.90
2019-05-20T15:07:09.608Z,50.43
2019-05-20T15:11:12.618Z,55.30
2019-05-20T15:15:16.013Z,52.73
2019-05-20T15:19:19.114Z,53.70
2019-05-20T15:23:22.127Z,58.30
2019-05-20T15:27:25.131Z,56.60
2019-05-20T15:31:34.035Z,54.23
2019-05-20T15:35:37.138Z,59.40
2019-05-20T15:39:40.159Z,52.10
2019-05-20T15:43:43.146Z,56.93
2019-05-20T15:47:46.447Z,63.73
2019-05-20T15:51:49.438Z,50.33
2019-05-20T15:55:52.458Z,57.60
2019-05-20T15:59:57.640Z,53.87
2019-05-20T16:04:00.637Z,52.77
2019-05-20T16:08:03.686Z,55.70
2019-05-20T16:12:06.805Z,56.63
2019-05-20T16:16:12.975Z,56.83
2019-05-20T16:24:19.794Z,57.40
2019-05-20T16:28:22.832Z,57.93
2019-05-20T16:32:25.907Z,65.07
2019-05-20T16:36:30.927Z,55.00
2019-05-20T16:40:34.636Z,58.20
2019-05-20T16:44:37.922Z,58.00
2019-05-20T16:48:41.117Z,54.97
2019-05-20T16:52:44.129Z,54.60
2019-05-20T16:56:47.672Z,55.37
2019-05-20T17:00:53.516Z,52.50
2019-05-20T17:04:56.794Z,51.37
2019-05-20T17:08:59.831Z,55.90
2019-05-20T17:13:03.044Z,61.30
2019-05-20T17:17:06.095Z,57.83
2019-05-20T17:21:09.132Z,59.30
2019-05-20T17:25:12.457Z,59.73
2019-05-20T17:29:15.476Z,56.57
2019-05-20T17:33:18.492Z,58.20
2019-05-20T17:37:21.509Z,64.03
2019-05-20T17:41:25.732Z,56.60
2019-05-20T17:45:28.937Z,60.13
2019-05-20T17:49:32.172Z,59.40
2019-05-20T17:53:35.349Z,64.37
2019-05-20T17:57:38.390Z,59.27
2019-05-20T18:01:43.263Z,63.17
2019-05-20T18:05:46.376Z,53.10
2019-05-20T18:09:51.295Z,56.53
2019-05-20T18:13:55.504Z,55.90
2019-05-20T18:18:00.910Z,52.87
2019-05-20T18:22:03.905Z,54.63
2019-05-20T18:26:06.931Z,52.67
2019-05-20T18:30:10.440Z,50.80
2019-05-20T18:34:13.611Z,46.83
2019-05-20T18:38:16.608Z,50.20
2019-05-20T18:42:19.632Z,52.50
2019-05-20T18:46:22.664Z,53.30
2019-05-20T18:50:25.748Z,50.93
2019-05-20T18:54:28.888Z,54.97
2019-05-20T18:58:31.898Z,63.97
2019-05-20T19:02:36.244Z,50.80
2019-05-20T19:06:39.300Z,55.73
2019-05-20T19:10:42.315Z,56.63
2019-05-20T19:14:45.319Z,59.87
2019-05-20T19:18:48.448Z,60.37
2019-05-20T19:22:51.492Z,64.93
2019-05-20T19:26:54.992Z,61.67
2019-05-20T19:30:58.070Z,62.70
2019-05-20T19:35:01.977Z,65.33
2019-05-20T19:39:06.720Z,69.60
2019-05-20T19:43:09.723Z,68.40
2019-05-20T19:47:12.767Z,64.67
2019-05-20T19:51:15.807Z,67.77
2019-05-20T19:55:19.343Z,74.83
2019-05-20T19:59:22.529Z,70.10
2019-05-20T20:03:27.643Z,70.47
2019-05-20T20:07:30.627Z,72.77
2019-05-20T20:11:33.654Z,65.70
2019-05-20T20:15:36.683Z,75.43
2019-05-20T20:19:39.705Z,71.37
2019-05-20T20:23:42.733Z,79.10
2019-05-20T20:27:45.782Z,72.80
2019-05-20T20:31:48.921Z,79.13
2019-05-20T20:35:51.963Z,80.17
2019-05-20T20:39:55.006Z,71.70
2019-05-20T20:43:58.010Z,83.00
2019-05-20T20:48:01.093Z,78.57
2019-05-20T20:52:04.239Z,70.60
2019-05-20T20:56:07.240Z,78.03
2019-05-20T21:00:11.258Z,65.20
2019-05-20T21:04:15.352Z,69.50
2019-05-20T21:08:18.424Z,67.67
2019-05-20T21:12:21.477Z,73.50
2019-05-20T21:16:24.564Z,69.13
2019-05-20T21:20:27.582Z,65.00
2019-05-20T21:24:30.597Z,61.60
2019-05-20T21:28:33.669Z,64.33
2019-05-20T21:32:36.698Z,65.93
2019-05-20T21:36:47.781Z,66.07
2019-05-20T21:40:44.788Z,60.73
2019-05-20T21:44:47.881Z,73.03
2019-05-20T21:48:51.203Z,62.50
2019-05-20T21:52:54.328Z,70.63
2019-05-20T21:56:57.584Z,75.33
2019-05-20T22:01:00.693Z,67.07
2019-05-20T22:05:04.714Z,78.47
2019-05-20T22:09:08.026Z,69.27
2019-05-20T22:13:11.082Z,69.70
2019-05-20T22:17:14.121Z,73.97
2019-05-20T22:21:19.233Z,84.30
2019-05-20T22:25:22.285Z,86.90
2019-05-20T22:29:25.372Z,82.23
2019-05-20T22:33:40.205Z,82.90
2019-05-20T22:37:33.340Z,83.50
2019-05-20T22:41:36.359Z,85.23
2019-05-20T22:45:39.461Z,85.63
2019-05-20T22:49:42.495Z,87.30
2019-05-20T22:53:45.503Z,90.67
2019-05-20T22:57:48.529Z,84.57
2019-05-20T23:01:51.617Z,78.30
2019-05-20T23:05:55.618Z,89.50
2019-05-20T23:09:58.718Z,81.97
2019-05-20T23:14:01.937Z,86.60
2019-05-20T23:18:05.343Z,84.60
2019-05-20T23:22:08.454Z,85.90
2019-05-20T23:26:11.578Z,93.90
2019-05-20T23:30:14.940Z,80.83
2019-05-20T23:34:18.003Z,82.63
2019-05-20T23:38:21.515Z,78.87
2019-05-20T23:42:24.577Z,89.10
2019-05-20T23:46:27.589Z,90.10
2019-05-20T23:50:30.596Z,82.13
2019-05-20T23:54:33.612Z,88.33
2019-05-20T23:58:36.641Z,95.30
